sensor_id;sensor_type;location;lat;lon;timestamp;P1;durP1;ratioP1;P2;durP2;ratioP2
29412;SDS011;16389;50.126;8.450;2023-11-19T00:01:08;12.13;;;10.85;;
29412;SDS011;16389;50.126;8.450;2023-11-19T00:03:34;11.02;;;9.98;;
29412;SDS011;16389;50.126;8.450;2023-11-19T00:06:00;12.13;;;10.82;;
29412;SDS011;16389;50.126;8.450;2023-11-19T00:08:26;12.43;;;11.13;;
29412;SDS011;16389;50.126;8.450;2023-11-19T00:10:52;12.82;;;10.65;;
29412;SDS011;16389;50.126;8.450;2023-11-19T00:13:20;13.90;;;12.43;;
29412;SDS011;16389;50.126;8.450;2023-11-19T00:15:48;13.48;;;11.55;;
29412;SDS011;16389;50.126;8.450;2023-11-19T00:18:13;14.43;;;11.60;;
29412;SDS011;16389;50.126;8.450;2023-11-19T00:20:48;12.75;;;11.15;;
29412;SDS011;16389;50.126;8.450;2023-11-19T00:23:14;11.75;;;10.15;;
29412;SDS011;16389;50.126;8.450;2023-11-19T00:25:41;14.38;;;11.00;;
29412;SDS011;16389;50.126;8.450;2023-11-19T00:28:06;11.80;;;10.60;;
29412;SDS011;16389;50.126;8.450;2023-11-19T00:30:33;13.23;;;10.93;;
29412;SDS011;16389;50.126;8.450;2023-11-19T00:32:58;13.70;;;11.15;;
29412;SDS011;16389;50.126;8.450;2023-11-19T00:35:24;12.38;;;11.18;;
29412;SDS011;16389;50.126;8.450;2023-11-19T00:37:50;12.40;;;11.13;;
29412;SDS011;16389;50.126;8.450;2023-11-19T00:40:16;12.38;;;11.07;;
29412;SDS011;16389;50.126;8.450;2023-11-19T00:42:43;13.32;;;11.38;;
29412;SDS011;16389;50.126;8.450;2023-11-19T00:45:18;11.20;;;10.10;;
29412;SDS011;16389;50.126;8.450;2023-11-19T00:47:44;11.93;;;9.90;;
29412;SDS011;16389;50.126;8.450;2023-11-19T00:50:11;10.32;;;9.27;;
29412;SDS011;16389;50.126;8.450;2023-11-19T00:52:43;9.68;;;8.77;;
29412;SDS011;16389;50.126;8.450;2023-11-19T00:55:09;10.00;;;9.00;;
29412;SDS011;16389;50.126;8.450;2023-11-19T00:57:38;9.27;;;8.45;;
29412;SDS011;16389;50.126;8.450;2023-11-19T01:00:07;11.20;;;10.10;;
29412;SDS011;16389;50.126;8.450;2023-11-19T01:02:50;10.88;;;9.73;;
29412;SDS011;16389;50.126;8.450;2023-11-19T01:05:20;13.95;;;10.55;;
29412;SDS011;16389;50.126;8.450;2023-11-19T01:07:49;11.38;;;10.27;;
29412;SDS011;16389;50.126;8.450;2023-11-19T01:10:15;12.85;;;9.85;;
29412;SDS011;16389;50.126;8.450;2023-11-19T01:12:41;11.05;;;9.95;;
29412;SDS011;16389;50.126;8.450;2023-11-19T01:15:07;10.38;;;9.38;;
29412;SDS011;16389;50.126;8.450;2023-11-19T01:17:33;10.85;;;9.75;;
29412;SDS011;16389;50.126;8.450;2023-11-19T01:19:59;10.50;;;9.50;;
29412;SDS011;16389;50.126;8.450;2023-11-19T01:22:25;10.25;;;9.15;;
29412;SDS011;16389;50.126;8.450;2023-11-19T01:24:51;11.10;;;9.98;;
29412;SDS011;16389;50.126;8.450;2023-11-19T01:27:17;9.40;;;8.43;;
29412;SDS011;16389;50.126;8.450;2023-11-19T01:29:43;10.30;;;9.27;;
29412;SDS011;16389;50.126;8.450;2023-11-19T01:32:09;9.15;;;8.27;;
29412;SDS011;16389;50.126;8.450;2023-11-19T01:34:35;8.80;;;8.00;;
29412;SDS011;16389;50.126;8.450;2023-11-19T01:37:01;9.80;;;8.80;;
29412;SDS011;16389;50.126;8.450;2023-11-19T01:39:26;9.68;;;8.68;;
29412;SDS011;16389;50.126;8.450;2023-11-19T01:41:52;8.93;;;8.13;;
29412;SDS011;16389;50.126;8.450;2023-11-19T01:44:19;9.90;;;9.00;;
29412;SDS011;16389;50.126;8.450;2023-11-19T01:46:45;9.27;;;8.38;;
29412;SDS011;16389;50.126;8.450;2023-11-19T01:49:17;10.65;;;9.40;;
29412;SDS011;16389;50.126;8.450;2023-11-19T01:51:44;10.10;;;9.10;;
29412;SDS011;16389;50.126;8.450;2023-11-19T01:54:11;13.27;;;10.10;;
29412;SDS011;16389;50.126;8.450;2023-11-19T01:56:38;12.88;;;9.65;;
29412;SDS011;16389;50.126;8.450;2023-11-19T01:59:05;11.75;;;10.65;;
29412;SDS011;16389;50.126;8.450;2023-11-19T02:01:34;13.00;;;11.25;;
29412;SDS011;16389;50.126;8.450;2023-11-19T02:04:05;11.77;;;9.93;;
29412;SDS011;16389;50.126;8.450;2023-11-19T02:06:34;12.32;;;10.93;;
29412;SDS011;16389;50.126;8.450;2023-11-19T02:09:05;12.55;;;10.52;;
29412;SDS011;16389;50.126;8.450;2023-11-19T02:11:36;11.43;;;10.32;;
29412;SDS011;16389;50.126;8.450;2023-11-19T02:14:05;13.73;;;11.05;;
29412;SDS011;16389;50.126;8.450;2023-11-19T02:16:31;12.10;;;11.00;;
29412;SDS011;16389;50.126;8.450;2023-11-19T02:18:57;9.85;;;8.90;;
29412;SDS011;16389;50.126;8.450;2023-11-19T02:21:23;9.38;;;8.38;;
29412;SDS011;16389;50.126;8.450;2023-11-19T02:23:49;10.45;;;9.35;;
29412;SDS011;16389;50.126;8.450;2023-11-19T02:29:02;7.82;;;7.00;;
29412;SDS011;16389;50.126;8.450;2023-11-19T02:31:28;8.43;;;7.55;;
29412;SDS011;16389;50.126;8.450;2023-11-19T02:33:53;7.82;;;7.03;;
29412;SDS011;16389;50.126;8.450;2023-11-19T02:36:20;9.25;;;7.82;;
29412;SDS011;16389;50.126;8.450;2023-11-19T02:38:46;8.77;;;7.88;;
29412;SDS011;16389;50.126;8.450;2023-11-19T02:41:13;9.55;;;8.10;;
29412;SDS011;16389;50.126;8.450;2023-11-19T02:43:39;8.52;;;7.72;;
29412;SDS011;16389;50.126;8.450;2023-11-19T02:46:05;9.40;;;8.50;;
29412;SDS011;16389;50.126;8.450;2023-11-19T02:48:32;9.60;;;8.60;;
29412;SDS011;16389;50.126;8.450;2023-11-19T02:50:58;11.27;;;9.07;;
29412;SDS011;16389;50.126;8.450;2023-11-19T02:53:24;8.70;;;7.85;;
29412;SDS011;16389;50.126;8.450;2023-11-19T02:55:52;11.05;;;8.27;;
29412;SDS011;16389;50.126;8.450;2023-11-19T02:58:18;9.95;;;8.77;;
29412;SDS011;16389;50.126;8.450;2023-11-19T03:00:49;11.63;;;10.35;;
29412;SDS011;16389;50.126;8.450;2023-11-19T03:03:27;9.52;;;8.63;;
29412;SDS011;16389;50.126;8.450;2023-11-19T03:05:56;9.07;;;8.27;;
29412;SDS011;16389;50.126;8.450;2023-11-19T03:08:22;11.50;;;10.35;;
29412;SDS011;16389;50.126;8.450;2023-11-19T03:10:48;10.18;;;9.18;;
29412;SDS011;16389;50.126;8.450;2023-11-19T03:13:17;10.13;;;9.05;;
29412;SDS011;16389;50.126;8.450;2023-11-19T03:18:13;11.30;;;8.93;;
29412;SDS011;16389;50.126;8.450;2023-11-19T03:20:39;9.07;;;8.18;;
29412;SDS011;16389;50.126;8.450;2023-11-19T03:23:05;8.90;;;8.10;;
29412;SDS011;16389;50.126;8.450;2023-11-19T03:25:32;8.40;;;7.53;;
29412;SDS011;16389;50.126;8.450;2023-11-19T03:28:01;9.38;;;8.48;;
29412;SDS011;16389;50.126;8.450;2023-11-19T03:30:28;8.73;;;7.93;;
29412;SDS011;16389;50.126;8.450;2023-11-19T03:32:54;9.85;;;8.25;;
29412;SDS011;16389;50.126;8.450;2023-11-19T03:35:20;8.60;;;7.82;;
29412;SDS011;16389;50.126;8.450;2023-11-19T03:37:46;9.07;;;8.27;;
29412;SDS011;16389;50.126;8.450;2023-11-19T03:40:13;9.73;;;8.73;;
29412;SDS011;16389;50.126;8.450;2023-11-19T03:42:40;7.97;;;7.18;;
29412;SDS011;16389;50.126;8.450;2023-11-19T03:45:09;8.95;;;7.38;;
29412;SDS011;16389;50.126;8.450;2023-11-19T03:47:35;11.13;;;7.40;;
29412;SDS011;16389;50.126;8.450;2023-11-19T03:50:01;8.15;;;7.35;;
29412;SDS011;16389;50.126;8.450;2023-11-19T03:52:28;12.27;;;7.30;;
29412;SDS011;16389;50.126;8.450;2023-11-19T03:54:54;8.40;;;7.13;;
29412;SDS011;16389;50.126;8.450;2023-11-19T03:57:21;8.57;;;7.78;;
29412;SDS011;16389;50.126;8.450;2023-11-19T03:59:54;10.80;;;6.72;;
29412;SDS011;16389;50.126;8.450;2023-11-19T04:02:40;8.70;;;7.85;;
29412;SDS011;16389;50.126;8.450;2023-11-19T04:05:06;8.82;;;7.78;;
29412;SDS011;16389;50.126;8.450;2023-11-19T04:07:33;11.02;;;7.45;;
29412;SDS011;16389;50.126;8.450;2023-11-19T04:09:59;8.10;;;7.30;;
29412;SDS011;16389;50.126;8.450;2023-11-19T04:12:25;8.48;;;7.60;;
29412;SDS011;16389;50.126;8.450;2023-11-19T04:14:51;7.65;;;6.50;;
29412;SDS011;16389;50.126;8.450;2023-11-19T04:17:17;7.97;;;7.18;;
29412;SDS011;16389;50.126;8.450;2023-11-19T04:19:43;9.88;;;6.85;;
29412;SDS011;16389;50.126;8.450;2023-11-19T04:22:09;7.72;;;6.35;;
29412;SDS011;16389;50.126;8.450;2023-11-19T04:24:36;7.05;;;6.35;;
29412;SDS011;16389;50.126;8.450;2023-11-19T04:27:02;5.97;;;5.30;;
29412;SDS011;16389;50.126;8.450;2023-11-19T04:29:29;6.80;;;6.10;;
29412;SDS011;16389;50.126;8.450;2023-11-19T04:31:56;6.40;;;5.72;;
29412;SDS011;16389;50.126;8.450;2023-11-19T04:34:26;6.15;;;5.55;;
29412;SDS011;16389;50.126;8.450;2023-11-19T04:36:58;6.47;;;5.75;;
29412;SDS011;16389;50.126;8.450;2023-11-19T04:39:29;6.03;;;5.15;;
29412;SDS011;16389;50.126;8.450;2023-11-19T04:41:55;5.93;;;5.32;;
29412;SDS011;16389;50.126;8.450;2023-11-19T04:44:22;7.57;;;5.03;;
29412;SDS011;16389;50.126;8.450;2023-11-19T04:46:51;6.30;;;5.32;;
29412;SDS011;16389;50.126;8.450;2023-11-19T04:49:17;5.78;;;5.10;;
29412;SDS011;16389;50.126;8.450;2023-11-19T04:51:44;5.80;;;4.60;;
29412;SDS011;16389;50.126;8.450;2023-11-19T04:54:12;7.22;;;4.88;;
29412;SDS011;16389;50.126;8.450;2023-11-19T04:56:38;5.45;;;4.80;;
29412;SDS011;16389;50.126;8.450;2023-11-19T04:59:05;5.10;;;4.40;;
29412;SDS011;16389;50.126;8.450;2023-11-19T05:01:34;4.70;;;4.25;;
29412;SDS011;16389;50.126;8.450;2023-11-19T05:04:01;4.88;;;4.43;;
29412;SDS011;16389;50.126;8.450;2023-11-19T05:06:27;5.10;;;4.60;;
29412;SDS011;16389;50.126;8.450;2023-11-19T05:08:57;3.75;;;3.25;;
29412;SDS011;16389;50.126;8.450;2023-11-19T05:11:34;7.05;;;4.97;;
29412;SDS011;16389;50.126;8.450;2023-11-19T05:14:02;4.10;;;3.50;;
29412;SDS011;16389;50.126;8.450;2023-11-19T05:16:29;9.88;;;4.05;;
29412;SDS011;16389;50.126;8.450;2023-11-19T05:18:55;4.85;;;4.30;;
29412;SDS011;16389;50.126;8.450;2023-11-19T05:21:21;3.90;;;3.50;;
29412;SDS011;16389;50.126;8.450;2023-11-19T05:23:47;4.28;;;3.88;;
29412;SDS011;16389;50.126;8.450;2023-11-19T05:26:19;4.50;;;3.97;;
29412;SDS011;16389;50.126;8.450;2023-11-19T05:28:46;12.25;;;4.82;;
29412;SDS011;16389;50.126;8.450;2023-11-19T05:31:13;6.35;;;4.50;;
29412;SDS011;16389;50.126;8.450;2023-11-19T05:33:39;5.25;;;4.18;;
29412;SDS011;16389;50.126;8.450;2023-11-19T05:36:05;5.05;;;3.83;;
29412;SDS011;16389;50.126;8.450;2023-11-19T05:38:36;4.85;;;4.35;;
29412;SDS011;16389;50.126;8.450;2023-11-19T05:41:02;5.05;;;4.65;;
29412;SDS011;16389;50.126;8.450;2023-11-19T05:43:29;5.90;;;4.47;;
29412;SDS011;16389;50.126;8.450;2023-11-19T05:45:59;5.05;;;4.55;;
29412;SDS011;16389;50.126;8.450;2023-11-19T05:48:26;4.80;;;4.28;;
29412;SDS011;16389;50.126;8.450;2023-11-19T05:50:53;4.70;;;4.30;;
29412;SDS011;16389;50.126;8.450;2023-11-19T05:53:20;4.70;;;4.22;;
29412;SDS011;16389;50.126;8.450;2023-11-19T05:55:49;5.00;;;4.38;;
29412;SDS011;16389;50.126;8.450;2023-11-19T05:58:24;5.57;;;5.00;;
29412;SDS011;16389;50.126;8.450;2023-11-19T06:00:54;6.82;;;5.03;;
29412;SDS011;16389;50.126;8.450;2023-11-19T06:03:21;5.68;;;4.63;;
29412;SDS011;16389;50.126;8.450;2023-11-19T06:05:47;5.30;;;4.70;;
29412;SDS011;16389;50.126;8.450;2023-11-19T06:08:14;5.32;;;4.38;;
29412;SDS011;16389;50.126;8.450;2023-11-19T06:10:40;5.22;;;4.45;;
29412;SDS011;16389;50.126;8.450;2023-11-19T06:13:07;7.60;;;5.07;;
29412;SDS011;16389;50.126;8.450;2023-11-19T06:15:35;6.15;;;5.00;;
29412;SDS011;16389;50.126;8.450;2023-11-19T06:18:01;7.28;;;5.30;;
29412;SDS011;16389;50.126;8.450;2023-11-19T06:20:32;6.05;;;4.93;;
29412;SDS011;16389;50.126;8.450;2023-11-19T06:23:04;6.70;;;5.55;;
29412;SDS011;16389;50.126;8.450;2023-11-19T06:25:32;7.60;;;6.18;;
29412;SDS011;16389;50.126;8.450;2023-11-19T06:28:00;7.07;;;5.53;;
29412;SDS011;16389;50.126;8.450;2023-11-19T06:30:28;7.70;;;5.00;;
29412;SDS011;16389;50.126;8.450;2023-11-19T06:32:57;7.10;;;5.50;;
29412;SDS011;16389;50.126;8.450;2023-11-19T06:35:23;8.32;;;5.65;;
29412;SDS011;16389;50.126;8.450;2023-11-19T06:37:55;7.70;;;5.53;;
29412;SDS011;16389;50.126;8.450;2023-11-19T06:40:25;7.03;;;5.43;;
29412;SDS011;16389;50.126;8.450;2023-11-19T06:42:52;7.38;;;5.35;;
29412;SDS011;16389;50.126;8.450;2023-11-19T06:45:22;6.85;;;5.20;;
29412;SDS011;16389;50.126;8.450;2023-11-19T06:47:48;6.55;;;5.03;;
29412;SDS011;16389;50.126;8.450;2023-11-19T06:50:14;7.93;;;5.22;;
29412;SDS011;16389;50.126;8.450;2023-11-19T06:52:40;7.45;;;5.85;;
29412;SDS011;16389;50.126;8.450;2023-11-19T06:55:06;9.27;;;7.00;;
29412;SDS011;16389;50.126;8.450;2023-11-19T06:57:33;9.82;;;6.50;;
29412;SDS011;16389;50.126;8.450;2023-11-19T06:59:59;9.27;;;5.82;;
29412;SDS011;16389;50.126;8.450;2023-11-19T07:02:26;7.50;;;5.38;;
29412;SDS011;16389;50.126;8.450;2023-11-19T07:04:52;7.05;;;5.30;;
29412;SDS011;16389;50.126;8.450;2023-11-19T07:07:28;6.80;;;5.57;;
29412;SDS011;16389;50.126;8.450;2023-11-19T07:09:55;7.40;;;5.50;;
29412;SDS011;16389;50.126;8.450;2023-11-19T07:12:21;10.25;;;6.57;;
29412;SDS011;16389;50.126;8.450;2023-11-19T07:14:47;4.63;;;3.78;;
29412;SDS011;16389;50.126;8.450;2023-11-19T07:17:14;9.93;;;4.90;;
29412;SDS011;16389;50.126;8.450;2023-11-19T07:19:40;4.75;;;3.88;;
29412;SDS011;16389;50.126;8.450;2023-11-19T07:22:06;4.70;;;3.55;;
29412;SDS011;16389;50.126;8.450;2023-11-19T07:24:32;4.68;;;3.53;;
29412;SDS011;16389;50.126;8.450;2023-11-19T07:26:58;5.95;;;4.43;;
29412;SDS011;16389;50.126;8.450;2023-11-19T07:29:24;4.93;;;4.07;;
29412;SDS011;16389;50.126;8.450;2023-11-19T07:31:51;6.50;;;4.32;;
29412;SDS011;16389;50.126;8.450;2023-11-19T07:34:26;5.05;;;3.85;;
29412;SDS011;16389;50.126;8.450;2023-11-19T07:36:53;7.05;;;5.00;;
29412;SDS011;16389;50.126;8.450;2023-11-19T07:39:27;5.78;;;4.25;;
29412;SDS011;16389;50.126;8.450;2023-11-19T07:41:57;6.03;;;3.53;;
29412;SDS011;16389;50.126;8.450;2023-11-19T07:44:23;7.85;;;3.92;;
29412;SDS011;16389;50.126;8.450;2023-11-19T07:46:49;3.63;;;3.22;;
29412;SDS011;16389;50.126;8.450;2023-11-19T07:49:18;9.30;;;4.10;;
29412;SDS011;16389;50.126;8.450;2023-11-19T07:51:50;4.05;;;3.63;;
29412;SDS011;16389;50.126;8.450;2023-11-19T07:54:18;4.43;;;3.90;;
29412;SDS011;16389;50.126;8.450;2023-11-19T07:56:49;4.00;;;2.75;;
29412;SDS011;16389;50.126;8.450;2023-11-19T07:59:15;4.00;;;2.97;;
29412;SDS011;16389;50.126;8.450;2023-11-19T08:01:42;4.13;;;3.38;;
29412;SDS011;16389;50.126;8.450;2023-11-19T08:04:11;3.35;;;2.65;;
29412;SDS011;16389;50.126;8.450;2023-11-19T08:06:36;3.63;;;2.63;;
29412;SDS011;16389;50.126;8.450;2023-11-19T08:09:02;3.47;;;3.08;;
29412;SDS011;16389;50.126;8.450;2023-11-19T08:11:31;2.85;;;2.53;;
29412;SDS011;16389;50.126;8.450;2023-11-19T08:13:59;3.25;;;1.88;;
29412;SDS011;16389;50.126;8.450;2023-11-19T08:16:28;2.90;;;2.60;;
29412;SDS011;16389;50.126;8.450;2023-11-19T08:18:58;4.25;;;2.95;;
29412;SDS011;16389;50.126;8.450;2023-11-19T08:21:33;4.93;;;3.95;;
29412;SDS011;16389;50.126;8.450;2023-11-19T08:23:59;4.45;;;3.97;;
29412;SDS011;16389;50.126;8.450;2023-11-19T08:26:28;2.30;;;1.95;;
29412;SDS011;16389;50.126;8.450;2023-11-19T08:28:57;2.47;;;1.50;;
29412;SDS011;16389;50.126;8.450;2023-11-19T08:31:24;1.67;;;1.57;;
29412;SDS011;16389;50.126;8.450;2023-11-19T08:33:51;2.78;;;1.70;;
29412;SDS011;16389;50.126;8.450;2023-11-19T08:36:17;2.47;;;1.67;;
29412;SDS011;16389;50.126;8.450;2023-11-19T08:38:43;1.55;;;1.40;;
29412;SDS011;16389;50.126;8.450;2023-11-19T08:41:22;2.35;;;1.38;;
29412;SDS011;16389;50.126;8.450;2023-11-19T08:43:55;1.33;;;1.23;;
29412;SDS011;16389;50.126;8.450;2023-11-19T08:46:21;1.30;;;1.10;;
29412;SDS011;16389;50.126;8.450;2023-11-19T08:48:47;1.20;;;1.10;;
29412;SDS011;16389;50.126;8.450;2023-11-19T08:51:17;1.23;;;1.00;;
29412;SDS011;16389;50.126;8.450;2023-11-19T08:53:43;1.23;;;0.98;;
29412;SDS011;16389;50.126;8.450;2023-11-19T08:56:08;0.90;;;0.90;;
29412;SDS011;16389;50.126;8.450;2023-11-19T08:58:34;1.30;;;0.80;;
29412;SDS011;16389;50.126;8.450;2023-11-19T09:01:04;1.40;;;0.90;;
29412;SDS011;16389;50.126;8.450;2023-11-19T09:03:31;1.20;;;0.90;;
29412;SDS011;16389;50.126;8.450;2023-11-19T09:05:57;1.73;;;0.88;;
29412;SDS011;16389;50.126;8.450;2023-11-19T09:08:23;1.75;;;0.82;;
29412;SDS011;16389;50.126;8.450;2023-11-19T09:10:51;0.73;;;0.73;;
29412;SDS011;16389;50.126;8.450;2023-11-19T09:13:17;1.60;;;1.00;;
29412;SDS011;16389;50.126;8.450;2023-11-19T09:15:47;1.33;;;1.02;;
29412;SDS011;16389;50.126;8.450;2023-11-19T09:18:14;1.08;;;0.98;;
29412;SDS011;16389;50.126;8.450;2023-11-19T09:20:47;2.83;;;1.30;;
29412;SDS011;16389;50.126;8.450;2023-11-19T09:23:13;2.40;;;1.23;;
29412;SDS011;16389;50.126;8.450;2023-11-19T09:25:50;1.33;;;1.00;;
29412;SDS011;16389;50.126;8.450;2023-11-19T09:28:37;2.47;;;1.10;;
29412;SDS011;16389;50.126;8.450;2023-11-19T09:31:12;2.25;;;1.30;;
29412;SDS011;16389;50.126;8.450;2023-11-19T09:33:39;6.43;;;1.27;;
29412;SDS011;16389;50.126;8.450;2023-11-19T09:36:05;3.38;;;1.20;;
29412;SDS011;16389;50.126;8.450;2023-11-19T09:38:31;5.18;;;1.15;;
29412;SDS011;16389;50.126;8.450;2023-11-19T09:40:58;4.75;;;1.20;;
29412;SDS011;16389;50.126;8.450;2023-11-19T09:43:27;2.17;;;1.02;;
29412;SDS011;16389;50.126;8.450;2023-11-19T09:45:56;5.03;;;0.97;;
29412;SDS011;16389;50.126;8.450;2023-11-19T09:48:30;6.45;;;1.15;;
29412;SDS011;16389;50.126;8.450;2023-11-19T09:51:00;1.30;;;0.82;;
29412;SDS011;16389;50.126;8.450;2023-11-19T09:53:27;3.35;;;0.70;;
29412;SDS011;16389;50.126;8.450;2023-11-19T09:55:54;4.57;;;0.95;;
29412;SDS011;16389;50.126;8.450;2023-11-19T09:58:24;4.55;;;1.05;;
29412;SDS011;16389;50.126;8.450;2023-11-19T10:00:50;1.55;;;0.88;;
29412;SDS011;16389;50.126;8.450;2023-11-19T10:03:17;1.45;;;0.85;;
29412;SDS011;16389;50.126;8.450;2023-11-19T10:05:43;2.05;;;0.90;;
29412;SDS011;16389;50.126;8.450;2023-11-19T10:08:12;6.80;;;1.38;;
29412;SDS011;16389;50.126;8.450;2023-11-19T10:10:39;2.95;;;0.90;;
29412;SDS011;16389;50.126;8.450;2023-11-19T10:13:09;2.83;;;0.93;;
29412;SDS011;16389;50.126;8.450;2023-11-19T10:15:36;5.15;;;0.95;;
29412;SDS011;16389;50.126;8.450;2023-11-19T10:18:03;4.25;;;1.20;;
29412;SDS011;16389;50.126;8.450;2023-11-19T10:20:36;4.65;;;1.10;;
29412;SDS011;16389;50.126;8.450;2023-11-19T10:23:04;3.95;;;1.48;;
29412;SDS011;16389;50.126;8.450;2023-11-19T10:25:31;2.25;;;0.90;;
29412;SDS011;16389;50.126;8.450;2023-11-19T10:27:59;6.20;;;1.35;;
29412;SDS011;16389;50.126;8.450;2023-11-19T10:30:29;5.40;;;1.33;;
29412;SDS011;16389;50.126;8.450;2023-11-19T10:33:02;6.82;;;1.40;;
29412;SDS011;16389;50.126;8.450;2023-11-19T10:35:29;3.33;;;1.00;;
29412;SDS011;16389;50.126;8.450;2023-11-19T10:37:55;3.88;;;1.20;;
29412;SDS011;16389;50.126;8.450;2023-11-19T10:40:21;2.47;;;1.30;;
29412;SDS011;16389;50.126;8.450;2023-11-19T10:43:03;3.88;;;1.75;;
29412;SDS011;16389;50.126;8.450;2023-11-19T10:45:30;5.15;;;1.10;;
29412;SDS011;16389;50.126;8.450;2023-11-19T10:47:57;6.57;;;1.20;;
29412;SDS011;16389;50.126;8.450;2023-11-19T10:50:23;4.18;;;1.25;;
29412;SDS011;16389;50.126;8.450;2023-11-19T10:52:51;5.53;;;1.20;;
29412;SDS011;16389;50.126;8.450;2023-11-19T10:55:35;6.07;;;1.20;;
29412;SDS011;16389;50.126;8.450;2023-11-19T10:58:05;5.97;;;1.48;;
29412;SDS011;16389;50.126;8.450;2023-11-19T11:00:39;3.45;;;0.95;;
29412;SDS011;16389;50.126;8.450;2023-11-19T11:03:11;3.60;;;1.00;;
29412;SDS011;16389;50.126;8.450;2023-11-19T11:05:40;6.45;;;1.40;;
29412;SDS011;16389;50.126;8.450;2023-11-19T11:08:07;4.80;;;1.30;;
29412;SDS011;16389;50.126;8.450;2023-11-19T11:10:34;7.15;;;1.13;;
29412;SDS011;16389;50.126;8.450;2023-11-19T11:13:05;7.05;;;1.30;;
29412;SDS011;16389;50.126;8.450;2023-11-19T11:15:45;9.07;;;2.67;;
29412;SDS011;16389;50.126;8.450;2023-11-19T11:18:13;7.05;;;1.30;;
29412;SDS011;16389;50.126;8.450;2023-11-19T11:20:39;6.28;;;1.33;;
29412;SDS011;16389;50.126;8.450;2023-11-19T11:28:43;6.85;;;1.35;;
29412;SDS011;16389;50.126;8.450;2023-11-19T11:31:21;10.52;;;1.75;;
29412;SDS011;16389;50.126;8.450;2023-11-19T11:34:07;7.88;;;2.35;;
29412;SDS011;16389;50.126;8.450;2023-11-19T11:36:44;3.72;;;1.10;;
29412;SDS011;16389;50.126;8.450;2023-11-19T11:39:23;5.30;;;1.73;;
29412;SDS011;16389;50.126;8.450;2023-11-19T11:47:20;5.97;;;1.23;;
29412;SDS011;16389;50.126;8.450;2023-11-19T11:49:48;8.48;;;1.40;;
29412;SDS011;16389;50.126;8.450;2023-11-19T11:52:16;11.48;;;1.80;;
29412;SDS011;16389;50.126;8.450;2023-11-19T11:54:43;12.05;;;1.42;;
29412;SDS011;16389;50.126;8.450;2023-11-19T11:57:13;6.50;;;1.33;;
29412;SDS011;16389;50.126;8.450;2023-11-19T12:02:09;10.40;;;1.52;;
29412;SDS011;16389;50.126;8.450;2023-11-19T12:04:36;5.18;;;1.48;;
29412;SDS011;16389;50.126;8.450;2023-11-19T12:07:12;9.18;;;1.67;;
29412;SDS011;16389;50.126;8.450;2023-11-19T12:09:43;8.35;;;1.88;;
29412;SDS011;16389;50.126;8.450;2023-11-19T12:19:59;6.70;;;1.40;;
29412;SDS011;16389;50.126;8.450;2023-11-19T12:22:26;4.97;;;1.08;;
29412;SDS011;16389;50.126;8.450;2023-11-19T12:25:02;3.75;;;0.93;;
29412;SDS011;16389;50.126;8.450;2023-11-19T12:27:28;5.57;;;1.67;;
29412;SDS011;16389;50.126;8.450;2023-11-19T12:29:54;5.50;;;1.15;;
29412;SDS011;16389;50.126;8.450;2023-11-19T12:32:22;6.15;;;1.13;;
29412;SDS011;16389;50.126;8.450;2023-11-19T12:34:48;9.00;;;1.75;;
29412;SDS011;16389;50.126;8.450;2023-11-19T12:37:14;3.58;;;1.15;;
29412;SDS011;16389;50.126;8.450;2023-11-19T12:39:41;3.17;;;1.13;;
29412;SDS011;16389;50.126;8.450;2023-11-19T12:42:08;8.70;;;1.90;;
29412;SDS011;16389;50.126;8.450;2023-11-19T12:44:38;4.63;;;1.00;;
29412;SDS011;16389;50.126;8.450;2023-11-19T12:47:05;4.82;;;1.52;;
29412;SDS011;16389;50.126;8.450;2023-11-19T12:49:32;4.53;;;1.52;;
29412;SDS011;16389;50.126;8.450;2023-11-19T12:51:59;6.75;;;1.00;;
29412;SDS011;16389;50.126;8.450;2023-11-19T12:54:35;3.97;;;1.00;;
29412;SDS011;16389;50.126;8.450;2023-11-19T12:57:02;6.25;;;1.30;;
29412;SDS011;16389;50.126;8.450;2023-11-19T12:59:29;8.48;;;1.40;;
29412;SDS011;16389;50.126;8.450;2023-11-19T13:04:22;4.95;;;0.90;;
29412;SDS011;16389;50.126;8.450;2023-11-19T13:06:49;4.45;;;1.05;;
29412;SDS011;16389;50.126;8.450;2023-11-19T13:09:25;5.45;;;1.00;;
29412;SDS011;16389;50.126;8.450;2023-11-19T13:11:54;4.53;;;1.10;;
29412;SDS011;16389;50.126;8.450;2023-11-19T13:14:21;4.18;;;0.80;;
29412;SDS011;16389;50.126;8.450;2023-11-19T13:16:47;10.93;;;1.40;;
29412;SDS011;16389;50.126;8.450;2023-11-19T13:19:21;5.50;;;1.25;;
29412;SDS011;16389;50.126;8.450;2023-11-19T13:21:49;4.97;;;1.15;;
29412;SDS011;16389;50.126;8.450;2023-11-19T13:24:18;3.33;;;0.98;;
29412;SDS011;16389;50.126;8.450;2023-11-19T13:26:50;4.05;;;1.00;;
29412;SDS011;16389;50.126;8.450;2023-11-19T13:29:18;5.45;;;2.30;;
29412;SDS011;16389;50.126;8.450;2023-11-19T13:31:53;4.45;;;0.95;;
29412;SDS011;16389;50.126;8.450;2023-11-19T13:34:19;4.03;;;1.00;;
29412;SDS011;16389;50.126;8.450;2023-11-19T13:36:48;3.67;;;1.00;;
29412;SDS011;16389;50.126;8.450;2023-11-19T13:39:15;6.47;;;2.47;;
29412;SDS011;16389;50.126;8.450;2023-11-19T13:41:47;6.00;;;0.90;;
29412;SDS011;16389;50.126;8.450;2023-11-19T13:44:17;4.53;;;1.00;;
29412;SDS011;16389;50.126;8.450;2023-11-19T13:46:46;5.90;;;1.35;;
29412;SDS011;16389;50.126;8.450;2023-11-19T13:49:12;8.38;;;1.70;;
29412;SDS011;16389;50.126;8.450;2023-11-19T13:51:38;4.32;;;1.17;;
29412;SDS011;16389;50.126;8.450;2023-11-19T13:54:05;9.07;;;1.40;;
29412;SDS011;16389;50.126;8.450;2023-11-19T13:56:31;6.25;;;1.60;;
29412;SDS011;16389;50.126;8.450;2023-11-19T13:58:57;7.38;;;2.22;;
29412;SDS011;16389;50.126;8.450;2023-11-19T14:01:23;5.15;;;1.23;;
29412;SDS011;16389;50.126;8.450;2023-11-19T14:03:49;4.75;;;1.15;;
29412;SDS011;16389;50.126;8.450;2023-11-19T14:06:22;5.05;;;0.98;;
29412;SDS011;16389;50.126;8.450;2023-11-19T14:08:48;5.80;;;1.55;;
29412;SDS011;16389;50.126;8.450;2023-11-19T14:11:17;7.82;;;2.10;;
29412;SDS011;16389;50.126;8.450;2023-11-19T14:13:44;4.68;;;1.00;;
29412;SDS011;16389;50.126;8.450;2023-11-19T14:16:11;8.07;;;1.23;;
29412;SDS011;16389;50.126;8.450;2023-11-19T14:18:37;3.92;;;1.42;;
29412;SDS011;16389;50.126;8.450;2023-11-19T14:21:03;5.15;;;1.20;;
29412;SDS011;16389;50.126;8.450;2023-11-19T14:23:30;4.97;;;1.00;;
29412;SDS011;16389;50.126;8.450;2023-11-19T14:25:56;5.57;;;1.20;;
29412;SDS011;16389;50.126;8.450;2023-11-19T14:28:22;20.77;;;4.20;;
29412;SDS011;16389;50.126;8.450;2023-11-19T14:30:50;4.13;;;1.15;;
29412;SDS011;16389;50.126;8.450;2023-11-19T14:33:24;5.97;;;1.00;;
29412;SDS011;16389;50.126;8.450;2023-11-19T14:35:51;8.00;;;2.05;;
29412;SDS011;16389;50.126;8.450;2023-11-19T14:38:17;6.65;;;1.10;;
29412;SDS011;16389;50.126;8.450;2023-11-19T14:40:44;7.20;;;2.00;;
29412;SDS011;16389;50.126;8.450;2023-11-19T14:43:10;7.70;;;1.30;;
29412;SDS011;16389;50.126;8.450;2023-11-19T14:45:36;3.70;;;0.90;;
29412;SDS011;16389;50.126;8.450;2023-11-19T14:48:03;9.50;;;1.58;;
29412;SDS011;16389;50.126;8.450;2023-11-19T14:52:58;3.75;;;1.00;;
29412;SDS011;16389;50.126;8.450;2023-11-19T14:55:24;5.85;;;1.00;;
29412;SDS011;16389;50.126;8.450;2023-11-19T14:57:51;8.32;;;1.35;;
29412;SDS011;16389;50.126;8.450;2023-11-19T15:00:19;6.57;;;1.20;;
29412;SDS011;16389;50.126;8.450;2023-11-19T15:02:52;8.30;;;1.60;;
29412;SDS011;16389;50.126;8.450;2023-11-19T15:05:18;6.53;;;1.33;;
29412;SDS011;16389;50.126;8.450;2023-11-19T15:07:45;5.57;;;1.83;;
29412;SDS011;16389;50.126;8.450;2023-11-19T15:10:11;5.82;;;1.80;;
29412;SDS011;16389;50.126;8.450;2023-11-19T15:12:38;6.05;;;1.55;;
29412;SDS011;16389;50.126;8.450;2023-11-19T15:15:08;5.70;;;1.10;;
29412;SDS011;16389;50.126;8.450;2023-11-19T15:17:41;5.97;;;1.30;;
29412;SDS011;16389;50.126;8.450;2023-11-19T15:20:13;4.43;;;0.98;;